Time;durP1;ratioP1;P1;durP2;ratioP2;P2;SDS_P1;SDS_P2;PMS_P1;PMS_P2;Temp;Humidity;BMP_temperature;BMP_pressure;BME280_temperature;BME280_humidity;BME280_pressure;Samples;Min_cycle;Max_cycle;Signal;HPM_P1;HPM_P2
2023/10/06 00:02:28;;;;;;;3.70;2.07;;;;;;;;;;5073092;28;20222;-85
2023/10/06 00:05:00;;;;;;;2.33;1.33;;;;;;;;;;5073827;28;20231;-85
2023/10/06 00:07:29;;;;;;;3.77;1.33;;;;;;;;;;5073203;28;20261;-85
2023/10/06 00:09:59;;;;;;;2.80;1.27;;;;;;;;;;5072797;28;20201;-85
2023/10/06 00:12:31;;;;;;;10.27;1.20;;;;;;;;;;5072292;28;20186;-85
2023/10/06 00:15:07;;;;;;;0.83;0.83;;;;;;;;;;5072972;28;20206;-86
2023/10/06 00:17:36;;;;;;;7.80;1.30;;;;;;;;;;5073111;28;20228;-85
2023/10/06 00:20:21;;;;;;;11.67;2.63;;;;;;;;;;5072489;28;20221;-85
2023/10/06 00:22:50;;;;;;;2.30;1.73;;;;;;;;;;5072297;28;20242;-85
2023/10/06 00:25:27;;;;;;;3.50;1.53;;;;;;;;;;5072545;28;20201;-85
2023/10/06 00:27:56;;;;;;;3.03;1.83;;;;;;;;;;5072304;28;20197;-85
2023/10/06 00:30:25;;;;;;;4.13;1.87;;;;;;;;;;5072716;28;20205;-85
2023/10/06 00:32:55;;;;;;;1.67;1.43;;;;;;;;;;5072505;28;20205;-84
2023/10/06 00:35:30;;;;;;;5.13;1.70;;;;;;;;;;5073000;28;20233;-85
2023/10/06 00:38:12;;;;;;;4.17;1.80;;;;;;;;;;5072098;28;20213;-85
2023/10/06 00:40:45;;;;;;;3.70;1.83;;;;;;;;;;5072163;28;20239;-84
2023/10/06 00:43:16;;;;;;;1.37;1.23;;;;;;;;;;5072037;28;20259;-85
2023/10/06 00:45:47;;;;;;;3.00;2.10;;;;;;;;;;5072429;28;20233;-85
2023/10/06 00:48:15;;;;;;;3.03;1.97;;;;;;;;;;5071933;28;20205;-85
2023/10/06 00:50:45;;;;;;;2.40;1.77;;;;;;;;;;5072519;28;20220;-85
2023/10/06 00:53:16;;;;;;;3.73;1.40;;;;;;;;;;5072643;28;20204;-85
2023/10/06 00:55:45;;;;;;;6.53;1.90;;;;;;;;;;5072450;28;20209;-85
2023/10/06 00:58:14;;;;;;;0.97;0.97;;;;;;;;;;5071298;28;20201;-85
2023/10/06 01:00:42;;;;;;;4.97;1.70;;;;;;;;;;5072307;28;20208;-85
2023/10/06 01:03:14;;;;;;;6.70;2.17;;;;;;;;;;5071829;28;20227;-85
2023/10/06 01:05:46;;;;;;;7.80;2.37;;;;;;;;;;5072210;28;20220;-85
2023/10/06 01:08:16;;;;;;;1.00;1.00;;;;;;;;;;5071832;28;20309;-85
2023/10/06 01:10:51;;;;;;;5.43;2.10;;;;;;;;;;5071964;28;20201;-85
2023/10/06 01:13:20;;;;;;;4.97;1.40;;;;;;;;;;5072099;28;20232;-85
2023/10/06 01:15:49;;;;;;;1.80;1.70;;;;;;;;;;5071487;28;20292;-86
2023/10/06 01:18:23;;;;;;;4.33;1.60;;;;;;;;;;5071577;28;20254;-85
2023/10/06 01:20:51;;;;;;;4.53;1.93;;;;;;;;;;5071975;28;20198;-85
2023/10/06 01:23:22;;;;;;;5.07;1.97;;;;;;;;;;5071507;28;20241;-85
2023/10/06 01:25:54;;;;;;;2.20;1.33;;;;;;;;;;5071285;28;20194;-85
2023/10/06 01:28:24;;;;;;;0.60;0.60;;;;;;;;;;5071908;28;20201;-85
2023/10/06 01:30:53;;;;;;;3.60;2.33;;;;;;;;;;5072125;28;20198;-85
2023/10/06 01:33:22;;;;;;;8.70;3.33;;;;;;;;;;5071120;28;20193;-85
2023/10/06 01:35:50;;;;;;;2.23;1.63;;;;;;;;;;5071906;28;20269;-85
2023/10/06 01:38:22;;;;;;;13.23;1.73;;;;;;;;;;5071753;28;20201;-85
2023/10/06 01:40:53;;;;;;;1.80;1.03;;;;;;;;;;5071693;28;20226;-85
2023/10/06 01:43:29;;;;;;;3.17;1.60;;;;;;;;;;5071189;28;20224;-85
2023/10/06 01:45:59;;;;;;;1.43;1.00;;;;;;;;;;5071139;28;20254;-85
2023/10/06 01:48:30;;;;;;;5.17;1.60;;;;;;;;;;5071641;28;20243;-85
2023/10/06 01:50:59;;;;;;;3.80;1.17;;;;;;;;;;5071879;28;20209;-85
2023/10/06 01:53:32;;;;;;;4.37;2.30;;;;;;;;;;5071256;28;20190;-87
2023/10/06 01:56:06;;;;;;;1.90;1.53;;;;;;;;;;5071660;28;20208;-88
2023/10/06 01:58:39;;;;;;;4.60;2.40;;;;;;;;;;5071492;28;20208;-88
2023/10/06 02:01:08;;;;;;;10.83;1.90;;;;;;;;;;5071374;28;20194;-88
2023/10/06 02:03:40;;;;;;;5.37;1.27;;;;;;;;;;5071364;28;20257;-87
2023/10/06 02:06:15;;;;;;;7.97;2.30;;;;;;;;;;5071731;28;20221;-87
2023/10/06 02:08:44;;;;;;;3.60;1.90;;;;;;;;;;5075400;28;20197;-87
2023/10/06 02:11:14;;;;;;;5.03;2.20;;;;;;;;;;5075286;28;20221;-88
2023/10/06 02:13:43;;;;;;;2.37;1.80;;;;;;;;;;5075393;28;20197;-88
2023/10/06 02:16:11;;;;;;;3.37;1.77;;;;;;;;;;5076028;28;20293;-88
2023/10/06 02:18:40;;;;;;;2.53;1.57;;;;;;;;;;5075563;28;20222;-88
2023/10/06 02:21:14;;;;;;;1.53;1.43;;;;;;;;;;5074822;28;20203;-88
2023/10/06 02:23:44;;;;;;;9.00;2.57;;;;;;;;;;5074337;28;20246;-88
2023/10/06 02:26:13;;;;;;;3.80;2.20;;;;;;;;;;5075396;28;20393;-88
2023/10/06 02:28:48;;;;;;;4.30;2.03;;;;;;;;;;5075631;28;20205;-88
2023/10/06 02:31:21;;;;;;;6.80;2.20;;;;;;;;;;5075036;28;20201;-88
2023/10/06 02:33:51;;;;;;;1.50;1.13;;;;;;;;;;5075660;28;20198;-88
2023/10/06 02:36:21;;;;;;;4.63;1.43;;;;;;;;;;5074989;28;20259;-88
2023/10/06 02:38:50;;;;;;;7.50;2.03;;;;;;;;;;5075580;28;20256;-88
2023/10/06 02:41:20;;;;;;;2.10;1.50;;;;;;;;;;5074937;28;20208;-87
2023/10/06 02:43:51;;;;;;;4.97;1.70;;;;;;;;;;5074950;28;20213;-88
2023/10/06 02:46:23;;;;;;;2.10;1.83;;;;;;;;;;5074945;28;20233;-85
2023/10/06 02:48:52;;;;;;;3.33;1.50;;;;;;;;;;5074762;28;20204;-86
2023/10/06 02:51:32;;;;;;;0.73;0.73;;;;;;;;;;5074511;28;20202;-85
2023/10/06 02:56:43;;;;;;;13.03;3.47;;;;;;;;;;5073204;28;20210;-86
2023/10/06 02:59:21;;;;;;;3.87;1.97;;;;;;;;;;5074213;28;20202;-85
2023/10/06 03:01:56;;;;;;;1.03;1.03;;;;;;;;;;5074525;28;20258;-85
2023/10/06 03:04:28;;;;;;;1.33;0.70;;;;;;;;;;5074613;28;20221;-85
2023/10/06 03:06:57;;;;;;;4.07;1.20;;;;;;;;;;5074529;28;20203;-85
2023/10/06 03:09:36;;;;;;;4.67;1.50;;;;;;;;;;5073885;28;20197;-85
2023/10/06 03:12:11;;;;;;;9.17;3.43;;;;;;;;;;5074529;28;20205;-85
2023/10/06 03:14:42;;;;;;;11.27;4.07;;;;;;;;;;5074278;28;20294;-85
2023/10/06 03:17:12;;;;;;;7.07;3.33;;;;;;;;;;5074132;28;20215;-86
2023/10/06 03:19:42;;;;;;;9.07;3.50;;;;;;;;;;5072596;28;20243;-85
2023/10/06 03:22:13;;;;;;;8.83;3.57;;;;;;;;;;5074057;28;20209;-86
2023/10/06 03:24:53;;;;;;;9.67;3.40;;;;;;;;;;5073748;28;20244;-85
2023/10/06 03:27:23;;;;;;;8.03;3.97;;;;;;;;;;5074236;28;20201;-85
2023/10/06 03:29:55;;;;;;;11.63;4.70;;;;;;;;;;5073859;28;20194;-85
2023/10/06 03:32:38;;;;;;;18.40;4.83;;;;;;;;;;5074126;28;20263;-85
2023/10/06 03:35:17;;;;;;;14.27;5.10;;;;;;;;;;5074090;28;20358;-85
2023/10/06 03:37:52;;;;;;;8.87;2.90;;;;;;;;;;5073742;28;20227;-85
2023/10/06 03:40:23;;;;;;;4.90;2.53;;;;;;;;;;5073913;28;20207;-86
2023/10/06 03:42:52;;;;;;;8.63;3.43;;;;;;;;;;5073890;28;20217;-85
2023/10/06 03:45:31;;;;;;;11.77;4.50;;;;;;;;;;5073431;28;20224;-85
2023/10/06 03:48:10;;;;;;;13.63;5.13;;;;;;;;;;5073241;28;20235;-85
2023/10/06 03:50:39;;;;;;;15.80;5.77;;;;;;;;;;5074044;28;20207;-85
2023/10/06 03:53:13;;;;;;;12.73;4.50;;;;;;;;;;5073530;28;20258;-85
2023/10/06 03:55:44;;;;;;;16.47;6.10;;;;;;;;;;5073378;28;20210;-86
2023/10/06 03:58:14;;;;;;;15.87;4.70;;;;;;;;;;5073071;28;20242;-85
2023/10/06 04:00:48;;;;;;;17.13;6.20;;;;;;;;;;5073424;28;20216;-85
2023/10/06 04:03:17;;;;;;;15.33;6.10;;;;;;;;;;5073438;28;20204;-85
2023/10/06 04:05:48;;;;;;;9.77;4.53;;;;;;;;;;5072517;28;20213;-85
2023/10/06 04:08:20;;;;;;;11.83;5.40;;;;;;;;;;5072881;28;20188;-85
2023/10/06 04:10:51;;;;;;;11.10;4.73;;;;;;;;;;5073488;28;20239;-85
2023/10/06 04:13:21;;;;;;;22.63;3.07;;;;;;;;;;5073187;28;20209;-85
2023/10/06 04:15:52;;;;;;;11.73;4.73;;;;;;;;;;5072845;28;20258;-85
2023/10/06 04:18:22;;;;;;;13.93;3.20;;;;;;;;;;5073095;28;20205;-85
2023/10/06 04:20:52;;;;;;;16.20;4.67;;;;;;;;;;5072875;28;20230;-85
2023/10/06 04:23:22;;;;;;;17.20;5.50;;;;;;;;;;5072763;28;20534;-85
2023/10/06 04:25:54;;;;;;;16.67;3.70;;;;;;;;;;5072479;28;20316;-85
2023/10/06 04:28:25;;;;;;;9.47;3.93;;;;;;;;;;5072809;28;20211;-85
2023/10/06 04:30:58;;;;;;;13.90;4.77;;;;;;;;;;5072708;28;20256;-86
2023/10/06 04:33:28;;;;;;;8.60;3.07;;;;;;;;;;5072274;28;20209;-86
2023/10/06 04:35:59;;;;;;;6.77;2.73;;;;;;;;;;5072418;28;20201;-85
2023/10/06 04:38:29;;;;;;;5.03;2.10;;;;;;;;;;5072896;28;20205;-85
2023/10/06 04:40:58;;;;;;;10.90;3.10;;;;;;;;;;5072437;28;20202;-85
2023/10/06 04:43:26;;;;;;;7.33;2.67;;;;;;;;;;5071709;28;20217;-86
2023/10/06 04:45:56;;;;;;;4.60;2.30;;;;;;;;;;5072279;28;20219;-86
2023/10/06 04:48:25;;;;;;;7.27;1.43;;;;;;;;;;5072842;28;20403;-86
2023/10/06 04:50:55;;;;;;;2.07;1.13;;;;;;;;;;5072938;28;20220;-85
2023/10/06 04:53:24;;;;;;;9.63;2.57;;;;;;;;;;5071482;28;20203;-85
2023/10/06 04:55:53;;;;;;;5.90;2.33;;;;;;;;;;5072034;28;20194;-85
2023/10/06 04:58:23;;;;;;;6.43;2.40;;;;;;;;;;5072594;28;20232;-86
2023/10/06 05:00:53;;;;;;;8.03;1.53;;;;;;;;;;5072750;28;20265;-85
2023/10/06 05:03:23;;;;;;;3.53;1.17;;;;;;;;;;5071825;28;20197;-85
2023/10/06 05:05:55;;;;;;;1.63;1.17;;;;;;;;;;5072212;28;20316;-85
2023/10/06 05:08:24;;;;;;;3.50;2.03;;;;;;;;;;5072112;28;20205;-85
2023/10/06 05:10:55;;;;;;;1.90;0.73;;;;;;;;;;5071603;28;20201;-86
2023/10/06 05:13:26;;;;;;;3.63;2.10;;;;;;;;;;5071718;28;20202;-86
2023/10/06 05:15:55;;;;;;;9.10;2.60;;;;;;;;;;5071940;28;20234;-85
2023/10/06 05:18:25;;;;;;;2.77;1.37;;;;;;;;;;5072311;28;20281;-85
2023/10/06 05:20:53;;;;;;;10.40;2.73;;;;;;;;;;5071651;28;20199;-85
2023/10/06 05:23:22;;;;;;;5.33;1.97;;;;;;;;;;5071534;28;20233;-85
2023/10/06 05:25:50;;;;;;;2.83;1.87;;;;;;;;;;5072178;28;20226;-85
2023/10/06 05:28:20;;;;;;;4.60;1.47;;;;;;;;;;5072227;28;20206;-86
2023/10/06 05:30:50;;;;;;;7.83;2.00;;;;;;;;;;5071715;28;20255;-86
2023/10/06 05:33:19;;;;;;;9.50;2.60;;;;;;;;;;5071474;28;20196;-85
2023/10/06 05:35:51;;;;;;;8.53;3.10;;;;;;;;;;5071861;28;20205;-85
2023/10/06 05:38:20;;;;;;;5.50;1.97;;;;;;;;;;5071942;28;20297;-85
2023/10/06 05:40:49;;;;;;;12.27;2.60;;;;;;;;;;5071145;28;20212;-85
2023/10/06 05:43:18;;;;;;;13.23;2.57;;;;;;;;;;5071049;28;20208;-85
2023/10/06 05:45:51;;;;;;;7.00;3.13;;;;;;;;;;5071836;28;20245;-85
2023/10/06 05:48:22;;;;;;;12.00;2.93;;;;;;;;;;5071601;28;20197;-84
2023/10/06 05:51:01;;;;;;;3.87;2.07;;;;;;;;;;5071881;28;20212;-85
2023/10/06 05:53:34;;;;;;;8.33;2.90;;;;;;;;;;5072527;28;20296;-87
2023/10/06 05:56:03;;;;;;;10.73;3.30;;;;;;;;;;5071428;28;20193;-85
2023/10/06 05:58:34;;;;;;;6.57;2.27;;;;;;;;;;5071551;28;20459;-85
2023/10/06 06:01:06;;;;;;;2.47;1.23;;;;;;;;;;5071175;28;20199;-84
2023/10/06 06:03:35;;;;;;;6.20;2.37;;;;;;;;;;5071906;28;20226;-82
2023/10/06 06:06:09;;;;;;;9.30;3.70;;;;;;;;;;5071380;28;20243;-82
2023/10/06 06:08:40;;;;;;;4.60;2.73;;;;;;;;;;5070864;28;20197;-83
2023/10/06 06:11:08;;;;;;;12.57;2.67;;;;;;;;;;5071428;28;20189;-83
2023/10/06 06:13:38;;;;;;;5.10;2.60;;;;;;;;;;5071683;28;20209;-83
2023/10/06 06:16:07;;;;;;;12.70;2.57;;;;;;;;;;5071382;28;20200;-84
2023/10/06 06:18:42;;;;;;;4.70;2.20;;;;;;;;;;5070495;28;20248;-83
2023/10/06 06:21:16;;;;;;;4.87;0.90;;;;;;;;;;5071280;28;20233;-83
2023/10/06 06:23:46;;;;;;;7.13;1.80;;;;;;;;;;5071100;28;20245;-83
2023/10/06 06:26:17;;;;;;;5.17;2.17;;;;;;;;;;5071013;28;20227;-83
2023/10/06 06:28:46;;;;;;;14.73;2.00;;;;;;;;;;5070866;28;20208;-83
2023/10/06 06:31:18;;;;;;;2.03;1.63;;;;;;;;;;5071460;28;20248;-83
2023/10/06 06:33:48;;;;;;;44.33;4.63;;;;;;;;;;5071422;28;20322;-83
2023/10/06 06:36:19;;;;;;;4.97;2.37;;;;;;;;;;5071044;28;20217;-82
2023/10/06 06:38:48;;;;;;;13.10;3.97;;;;;;;;;;5070864;28;20202;-82
2023/10/06 06:41:19;;;;;;;11.10;4.87;;;;;;;;;;5071592;28;20238;-82
2023/10/06 06:43:48;;;;;;;4.90;1.77;;;;;;;;;;5071222;28;20202;-82
2023/10/06 06:46:17;;;;;;;4.00;2.37;;;;;;;;;;5070825;28;20214;-82
2023/10/06 06:48:46;;;;;;;15.00;2.37;;;;;;;;;;5071156;28;20296;-82
2023/10/06 06:51:15;;;;;;;11.77;2.63;;;;;;;;;;5071060;28;20201;-82
2023/10/06 06:53:45;;;;;;;2.73;1.90;;;;;;;;;;5072904;28;20214;-82
2023/10/06 06:56:13;;;;;;;5.00;1.53;;;;;;;;;;5073907;28;20200;-80
2023/10/06 06:58:42;;;;;;;4.43;1.27;;;;;;;;;;5074724;28;20263;-82
2023/10/06 07:01:14;;;;;;;5.23;2.00;;;;;;;;;;5074761;28;20233;-82
2023/10/06 07:03:43;;;;;;;12.03;2.97;;;;;;;;;;5074512;28;20209;-82
2023/10/06 07:06:16;;;;;;;6.47;2.53;;;;;;;;;;5074259;28;20225;-82
2023/10/06 07:08:47;;;;;;;10.00;3.63;;;;;;;;;;5074878;28;20202;-82
2023/10/06 07:11:16;;;;;;;5.33;2.60;;;;;;;;;;5074602;28;20210;-82
2023/10/06 07:13:45;;;;;;;6.13;2.10;;;;;;;;;;5073962;28;20197;-82
2023/10/06 07:16:14;;;;;;;2.87;2.13;;;;;;;;;;5074419;28;20211;-82
2023/10/06 07:18:43;;;;;;;8.77;2.83;;;;;;;;;;5074442;28;20229;-82
2023/10/06 07:21:13;;;;;;;4.33;2.40;;;;;;;;;;5074199;28;20244;-82
2023/10/06 07:23:44;;;;;;;7.60;2.90;;;;;;;;;;5074040;28;20241;-82
2023/10/06 07:26:14;;;;;;;6.03;2.50;;;;;;;;;;5073772;28;20225;-82
2023/10/06 07:28:44;;;;;;;11.37;3.10;;;;;;;;;;5074399;28;20209;-82
2023/10/06 07:31:16;;;;;;;15.57;5.07;;;;;;;;;;5074629;28;20206;-82
2023/10/06 07:33:47;;;;;;;7.33;3.73;;;;;;;;;;5073631;28;20204;-82
2023/10/06 07:36:17;;;;;;;5.27;2.10;;;;;;;;;;5073843;28;20197;-82
2023/10/06 07:38:48;;;;;;;5.57;3.67;;;;;;;;;;5074050;28;20194;-83
2023/10/06 07:41:23;;;;;;;8.50;3.37;;;;;;;;;;5073923;28;20212;-82
2023/10/06 07:43:52;;;;;;;8.30;2.73;;;;;;;;;;5073131;28;20217;-82
2023/10/06 07:46:21;;;;;;;2.87;2.33;;;;;;;;;;5073344;28;20225;-82
2023/10/06 07:48:50;;;;;;;9.13;3.03;;;;;;;;;;5074313;28;20199;-82
2023/10/06 07:51:19;;;;;;;5.30;2.20;;;;;;;;;;5073673;28;20201;-82
2023/10/06 07:53:48;;;;;;;3.03;1.50;;;;;;;;;;5073276;28;20296;-82
2023/10/06 07:56:18;;;;;;;6.10;2.53;;;;;;;;;;5073509;28;20190;-82
2023/10/06 07:58:52;;;;;;;6.63;2.87;;;;;;;;;;5074208;28;20288;-82
2023/10/06 08:01:21;;;;;;;10.30;3.17;;;;;;;;;;5073029;28;20208;-82
2023/10/06 08:03:50;;;;;;;6.90;3.10;;;;;;;;;;5073232;28;20205;-82
2023/10/06 08:06:20;;;;;;;11.23;3.30;;;;;;;;;;5073031;28;20221;-83
2023/10/06 08:08:49;;;;;;;12.77;3.97;;;;;;;;;;5073193;28;20207;-82
2023/10/06 08:11:17;;;;;;;2.97;1.10;;;;;;;;;;5072853;28;20202;-82
2023/10/06 08:13:52;;;;;;;5.00;1.87;;;;;;;;;;5072938;28;20205;-83
2023/10/06 08:16:21;;;;;;;4.23;1.97;;;;;;;;;;5073255;28;20225;-82
2023/10/06 08:18:50;;;;;;;5.90;2.17;;;;;;;;;;5073410;28;20216;-83
2023/10/06 08:21:20;;;;;;;5.97;2.23;;;;;;;;;;5072672;28;20236;-83
2023/10/06 08:23:50;;;;;;;8.40;2.80;;;;;;;;;;5072797;28;20237;-83
2023/10/06 08:26:18;;;;;;;1.70;1.60;;;;;;;;;;5073372;28;20412;-86
2023/10/06 08:28:49;;;;;;;6.63;1.67;;;;;;;;;;5072640;28;20289;-86
2023/10/06 08:31:19;;;;;;;4.50;2.00;;;;;;;;;;5073081;28;20214;-86
2023/10/06 08:33:47;;;;;;;6.97;2.67;;;;;;;;;;5072364;28;20194;-86
2023/10/06 08:36:17;;;;;;;9.63;3.03;;;;;;;;;;5072932;28;20205;-86
2023/10/06 08:38:46;;;;;;;2.97;1.67;;;;;;;;;;5072770;28;20289;-86
2023/10/06 08:41:16;;;;;;;12.80;3.00;;;;;;;;;;5072244;28;20208;-86
2023/10/06 08:43:46;;;;;;;3.93;1.87;;;;;;;;;;5072870;28;20214;-86
2023/10/06 08:46:15;;;;;;;1.70;1.37;;;;;;;;;;5072770;28;20204;-86
2023/10/06 08:48:46;;;;;;;5.37;1.67;;;;;;;;;;5072282;28;20205;-86
2023/10/06 08:51:15;;;;;;;9.27;2.93;;;;;;;;;;5072568;28;20231;-85
2023/10/06 08:53:45;;;;;;;11.17;2.33;;;;;;;;;;5072270;28;20202;-82
2023/10/06 08:56:17;;;;;;;4.10;1.37;;;;;;;;;;5072210;28;20278;-79
2023/10/06 08:58:46;;;;;;;1.63;1.53;;;;;;;;;;5072547;28;20215;-82
2023/10/06 09:01:15;;;;;;;7.27;3.17;;;;;;;;;;5072036;28;20205;-82
2023/10/06 09:03:46;;;;;;;10.83;3.60;;;;;;;;;;5072531;28;20234;-82
2023/10/06 09:06:17;;;;;;;2.00;1.43;;;;;;;;;;5071698;28;20198;-83
2023/10/06 09:08:46;;;;;;;7.33;2.23;;;;;;;;;;5071748;28;20196;-82
2023/10/06 09:11:20;;;;;;;4.90;2.83;;;;;;;;;;5072744;28;20212;-82
2023/10/06 09:14:07;;;;;;;15.67;2.33;;;;;;;;;;5072561;28;20222;-82
2023/10/06 09:16:48;;;;;;;14.40;3.30;;;;;;;;;;5072128;28;20210;-82
2023/10/06 09:19:18;;;;;;;9.03;3.57;;;;;;;;;;5072246;28;20224;-82
2023/10/06 09:22:04;;;;;;;3.10;1.57;;;;;;;;;;5072333;28;20291;-82
2023/10/06 09:24:33;;;;;;;12.00;3.77;;;;;;;;;;5072100;28;20267;-83
2023/10/06 09:27:05;;;;;;;8.83;3.33;;;;;;;;;;5071775;28;20224;-83
2023/10/06 09:29:36;;;;;;;1.20;1.10;;;;;;;;;;5072129;28;20208;-81
2023/10/06 09:32:20;;;;;;;4.57;1.60;;;;;;;;;;5072223;28;20193;-82
2023/10/06 09:34:53;;;;;;;5.93;2.17;;;;;;;;;;5071890;28;20254;-83
2023/10/06 09:37:24;;;;;;;4.10;1.33;;;;;;;;;;5071419;28;20219;-82
2023/10/06 09:39:57;;;;;;;5.37;1.63;;;;;;;;;;5072458;28;20199;-82
2023/10/06 09:42:28;;;;;;;7.37;3.10;;;;;;;;;;5071904;28;20186;-82
2023/10/06 09:45:06;;;;;;;10.70;2.53;;;;;;;;;;5070973;28;20190;-82
2023/10/06 09:47:36;;;;;;;6.90;2.00;;;;;;;;;;5071683;28;20247;-82
2023/10/06 09:50:06;;;;;;;13.00;3.80;;;;;;;;;;5071868;28;20202;-82
2023/10/06 09:52:42;;;;;;;7.60;3.13;;;;;;;;;;5071303;28;20231;-82
2023/10/06 09:55:11;;;;;;;9.27;3.10;;;;;;;;;;5071576;28;20344;-82
2023/10/06 09:57:42;;;;;;;3.60;2.23;;;;;;;;;;5071479;28;20293;-82
2023/10/06 10:00:16;;;;;;;3.10;2.07;;;;;;;;;;5072071;28;20198;-82
2023/10/06 10:02:45;;;;;;;6.67;2.90;;;;;;;;;;5070818;28;20197;-82
2023/10/06 10:05:14;;;;;;;3.83;1.60;;;;;;;;;;5070896;28;20209;-81
2023/10/06 10:07:44;;;;;;;7.03;2.60;;;;;;;;;;5071464;28;20203;-81
2023/10/06 10:10:15;;;;;;;11.40;2.83;;;;;;;;;;5072011;28;20211;-82
2023/10/06 10:12:59;;;;;;;9.17;2.43;;;;;;;;;;5071114;28;20211;-82
2023/10/06 10:15:37;;;;;;;6.60;2.23;;;;;;;;;;5071036;28;20215;-82
2023/10/06 10:18:13;;;;;;;8.03;3.00;;;;;;;;;;5071343;28;20197;-82
2023/10/06 10:20:42;;;;;;;3.83;1.80;;;;;;;;;;5071481;28;20204;-82
2023/10/06 10:23:16;;;;;;;6.67;2.97;;;;;;;;;;5070686;28;20235;-82
2023/10/06 10:25:45;;;;;;;14.40;2.87;;;;;;;;;;5071404;28;20203;-82
2023/10/06 10:28:19;;;;;;;1.90;1.33;;;;;;;;;;5072473;28;20221;-82
2023/10/06 10:30:54;;;;;;;11.50;3.00;;;;;;;;;;5075147;28;20230;-83
2023/10/06 10:33:23;;;;;;;7.33;2.70;;;;;;;;;;5075099;28;20204;-82
2023/10/06 10:36:11;;;;;;;9.00;2.20;;;;;;;;;;5075424;28;20256;-82
2023/10/06 10:38:42;;;;;;;21.07;4.93;;;;;;;;;;5075070;28;20193;-82
2023/10/06 10:41:11;;;;;;;6.10;2.37;;;;;;;;;;5074661;28;20199;-82
2023/10/06 10:43:45;;;;;;;9.97;1.97;;;;;;;;;;5074554;28;20215;-82
2023/10/06 10:46:14;;;;;;;5.47;2.73;;;;;;;;;;5075016;28;20216;-83
2023/10/06 10:48:47;;;;;;;2.20;1.70;;;;;;;;;;5074695;28;20215;-82
2023/10/06 10:51:21;;;;;;;6.77;2.53;;;;;;;;;;5073999;28;20201;-82
2023/10/06 10:53:54;;;;;;;3.57;1.40;;;;;;;;;;5074802;28;20212;-82
2023/10/06 10:56:26;;;;;;;8.57;2.80;;;;;;;;;;5074522;28;20206;-82
2023/10/06 10:58:57;;;;;;;6.70;2.30;;;;;;;;;;5074161;28;20254;-83
2023/10/06 11:01:34;;;;;;;10.30;3.03;;;;;;;;;;5074185;28;20195;-83
2023/10/06 11:04:18;;;;;;;5.80;2.33;;;;;;;;;;5074409;28;20198;-82
2023/10/06 11:06:48;;;;;;;6.67;3.27;;;;;;;;;;5074826;28;20226;-82
2023/10/06 11:09:29;;;;;;;13.57;4.23;;;;;;;;;;5074428;28;20251;-82
2023/10/06 11:11:58;;;;;;;3.03;1.00;;;;;;;;;;5074216;28;20305;-83
2023/10/06 11:14:49;;;;;;;9.30;3.50;;;;;;;;;;5074191;28;20261;-82
2023/10/06 11:17:38;;;;;;;5.97;1.77;;;;;;;;;;5074283;28;20336;-82
2023/10/06 11:20:13;;;;;;;4.13;1.97;;;;;;;;;;5074146;28;20312;-82
2023/10/06 11:22:52;;;;;;;9.27;4.03;;;;;;;;;;5074340;28;20204;-82
2023/10/06 11:25:27;;;;;;;11.30;3.13;;;;;;;;;;5074540;28;20213;-82
2023/10/06 11:27:56;;;;;;;10.53;2.63;;;;;;;;;;5073647;28;20229;-82
2023/10/06 11:30:28;;;;;;;7.97;2.30;;;;;;;;;;5073845;28;20201;-82
2023/10/06 11:32:57;;;;;;;7.20;3.23;;;;;;;;;;5073907;28;20211;-82
2023/10/06 11:35:26;;;;;;;11.90;3.00;;;;;;;;;;5074153;28;20197;-82
2023/10/06 11:37:55;;;;;;;5.10;2.80;;;;;;;;;;5073635;28;20349;-83
2023/10/06 11:40:25;;;;;;;8.17;2.37;;;;;;;;;;5072590;28;20198;-82
2023/10/06 11:42:54;;;;;;;5.43;3.03;;;;;;;;;;5073966;28;20219;-82
2023/10/06 11:45:28;;;;;;;7.00;3.03;;;;;;;;;;5073949;28;20451;-83
2023/10/06 11:47:58;;;;;;;9.63;2.27;;;;;;;;;;5073341;28;20206;-82
2023/10/06 11:50:31;;;;;;;5.87;2.00;;;;;;;;;;5073945;28;20205;-83
2023/10/06 11:53:00;;;;;;;2.37;1.00;;;;;;;;;;5074084;28;20208;-82
2023/10/06 11:55:33;;;;;;;10.40;2.77;;;;;;;;;;5073691;28;20208;-82
2023/10/06 11:58:04;;;;;;;5.70;2.23;;;;;;;;;;5073184;28;20205;-82
2023/10/06 12:00:40;;;;;;;7.53;2.10;;;;;;;;;;5073078;28;20194;-83
2023/10/06 12:03:11;;;;;;;15.47;3.00;;;;;;;;;;5073506;28;20207;-83
2023/10/06 12:05:43;;;;;;;9.63;3.53;;;;;;;;;;5073234;28;20197;-81
2023/10/06 12:08:14;;;;;;;10.57;2.70;;;;;;;;;;5072858;28;20275;-82
2023/10/06 12:10:51;;;;;;;5.30;2.63;;;;;;;;;;5073826;28;20198;-82
2023/10/06 12:13:20;;;;;;;4.43;1.93;;;;;;;;;;5073146;28;20203;-82
2023/10/06 12:15:48;;;;;;;8.23;2.43;;;;;;;;;;5072931;28;20193;-83
2023/10/06 12:18:18;;;;;;;11.53;2.83;;;;;;;;;;5072737;28;20208;-82
2023/10/06 12:20:46;;;;;;;4.63;1.83;;;;;;;;;;5073415;28;20209;-82
2023/10/06 12:23:15;;;;;;;9.57;3.33;;;;;;;;;;5072838;28;20242;-83
2023/10/06 12:25:44;;;;;;;9.40;2.90;;;;;;;;;;5072807;28;20263;-82
2023/10/06 12:28:16;;;;;;;6.87;2.50;;;;;;;;;;5072813;28;20209;-82
2023/10/06 12:30:46;;;;;;;11.07;2.60;;;;;;;;;;5073144;28;20205;-82
2023/10/06 12:33:15;;;;;;;16.00;3.27;;;;;;;;;;5072870;28;20268;-83
2023/10/06 12:35:43;;;;;;;5.50;1.57;;;;;;;;;;5072404;28;20210;-83
2023/10/06 12:38:14;;;;;;;16.77;4.03;;;;;;;;;;5072823;28;20205;-82
2023/10/06 12:40:46;;;;;;;4.50;2.07;;;;;;;;;;5072561;28;20236;-83
2023/10/06 12:43:19;;;;;;;8.30;2.57;;;;;;;;;;5072238;28;20198;-83
2023/10/06 12:45:47;;;;;;;7.27;3.23;;;;;;;;;;5072153;28;20208;-83
2023/10/06 12:48:16;;;;;;;3.00;1.67;;;;;;;;;;5072705;28;20199;-82
2023/10/06 12:50:45;;;;;;;8.93;2.47;;;;;;;;;;5072404;28;20233;-83
2023/10/06 12:53:13;;;;;;;4.73;2.30;;;;;;;;;;5072484;28;20198;-83
2023/10/06 12:55:42;;;;;;;6.70;3.13;;;;;;;;;;5072254;28;20202;-83
2023/10/06 12:58:15;;;;;;;10.47;3.57;;;;;;;;;;5072647;28;20212;-83
2023/10/06 13:00:45;;;;;;;7.27;2.40;;;;;;;;;;5072474;28;20317;-83
2023/10/06 13:03:17;;;;;;;3.33;2.23;;;;;;;;;;5072097;28;20266;-83
2023/10/06 13:05:46;;;;;;;11.57;3.80;;;;;;;;;;5072223;28;20211;-81
2023/10/06 13:08:17;;;;;;;5.50;2.53;;;;;;;;;;5072447;28;20209;-82
2023/10/06 13:10:46;;;;;;;2.60;1.50;;;;;;;;;;5072256;28;20224;-82
2023/10/06 13:13:17;;;;;;;6.97;2.50;;;;;;;;;;5072721;28;20200;-83
2023/10/06 13:15:47;;;;;;;4.23;2.00;;;;;;;;;;5072391;28;20206;-83
2023/10/06 13:18:17;;;;;;;10.13;2.93;;;;;;;;;;5072145;28;20255;-82
2023/10/06 13:20:46;;;;;;;3.90;3.30;;;;;;;;;;5072562;28;20200;-83
2023/10/06 13:23:15;;;;;;;10.20;2.83;;;;;;;;;;5071536;28;20300;-83
2023/10/06 13:25:45;;;;;;;8.40;2.83;;;;;;;;;;5072592;28;20250;-82
2023/10/06 13:28:18;;;;;;;11.73;3.13;;;;;;;;;;5072327;28;20214;-82
2023/10/06 13:30:48;;;;;;;10.37;2.97;;;;;;;;;;5071883;28;20225;-82
2023/10/06 13:33:16;;;;;;;8.97;2.73;;;;;;;;;;5071602;28;20212;-82
2023/10/06 13:35:47;;;;;;;7.13;1.63;;;;;;;;;;5072332;28;20234;-86
2023/10/06 13:38:16;;;;;;;5.53;2.77;;;;;;;;;;5073000;28;20197;-86
2023/10/06 13:40:45;;;;;;;11.33;3.33;;;;;;;;;;5073238;28;20201;-88
2023/10/06 13:43:14;;;;;;;5.93;2.87;;;;;;;;;;5072192;28;20200;-88
2023/10/06 13:45:47;;;;;;;8.60;3.57;;;;;;;;;;5072404;28;20198;-86
2023/10/06 13:48:22;;;;;;;8.93;3.43;;;;;;;;;;5073555;28;20236;-87
2023/10/06 13:50:52;;;;;;;5.57;2.43;;;;;;;;;;5072795;28;20271;-87
2023/10/06 13:53:21;;;;;;;4.10;1.87;;;;;;;;;;5072721;28;20301;-87
2023/10/06 13:55:50;;;;;;;9.47;4.03;;;;;;;;;;5071621;28;20286;-84
2023/10/06 13:58:20;;;;;;;10.67;4.33;;;;;;;;;;5072157;28;20194;-84
2023/10/06 14:00:48;;;;;;;3.90;1.97;;;;;;;;;;5070895;28;20379;-84
2023/10/06 14:03:19;;;;;;;6.17;2.13;;;;;;;;;;5073401;28;20204;-84
2023/10/06 14:05:52;;;;;;;4.10;1.90;;;;;;;;;;5075699;28;20205;-85
2023/10/06 14:08:21;;;;;;;12.03;2.07;;;;;;;;;;5075948;28;20207;-86
2023/10/06 14:10:51;;;;;;;8.57;2.93;;;;;;;;;;5076177;28;20325;-87
2023/10/06 14:13:24;;;;;;;12.60;2.90;;;;;;;;;;5076218;28;20199;-87
2023/10/06 14:15:58;;;;;;;6.53;1.73;;;;;;;;;;5076262;28;20227;-87
2023/10/06 14:18:32;;;;;;;4.23;2.70;;;;;;;;;;5075408;28;20213;-87
2023/10/06 14:21:05;;;;;;;6.27;2.50;;;;;;;;;;5075465;28;20207;-84
2023/10/06 14:23:39;;;;;;;5.63;2.10;;;;;;;;;;5075299;28;20326;-84
2023/10/06 14:26:10;;;;;;;10.13;2.50;;;;;;;;;;5075143;28;20215;-84
2023/10/06 14:28:39;;;;;;;6.10;3.93;;;;;;;;;;5074416;28;20386;-85
2023/10/06 14:31:16;;;;;;;9.83;2.70;;;;;;;;;;5074880;28;20218;-84
2023/10/06 14:33:47;;;;;;;9.53;2.50;;;;;;;;;;5075207;28;20269;-84
2023/10/06 14:36:25;;;;;;;5.37;2.87;;;;;;;;;;5075392;28;20208;-87
2023/10/06 14:47:12;;;;;;;4.13;2.70;;;;;;;;;;5075234;28;20201;-87
2023/10/06 14:49:43;;;;;;;4.93;2.43;;;;;;;;;;5075253;28;20221;-87
2023/10/06 14:52:13;;;;;;;5.83;1.73;;;;;;;;;;5075945;28;20203;-87
2023/10/06 14:54:43;;;;;;;9.50;3.03;;;;;;;;;;5076200;28;20480;-87
2023/10/06 14:57:13;;;;;;;8.73;2.57;;;;;;;;;;5074475;28;20211;-87
2023/10/06 14:59:44;;;;;;;8.13;2.77;;;;;;;;;;5075359;28;20210;-87
2023/10/06 15:02:12;;;;;;;6.07;2.57;;;;;;;;;;5075449;28;20254;-87
2023/10/06 15:04:43;;;;;;;8.33;2.97;;;;;;;;;;5075085;28;20218;-87
2023/10/06 15:07:14;;;;;;;8.90;3.50;;;;;;;;;;5075434;28;20203;-87
2023/10/06 15:09:43;;;;;;;3.47;1.67;;;;;;;;;;5075428;28;20209;-87
2023/10/06 15:12:14;;;;;;;9.07;3.00;;;;;;;;;;5075000;28;20203;-87
2023/10/06 15:14:44;;;;;;;7.27;2.67;;;;;;;;;;5075115;28;20198;-87
2023/10/06 15:17:14;;;;;;;2.93;1.67;;;;;;;;;;5074503;28;20203;-87